x

Point Arguello, Ca (ptgc1) Weather Station

11:00 - Fri 28th Apr 2017 All times are PDT. -7 hours from GMT.

  • Wind
    9mph, 11mph gusts
  • Air Temp 51°f
  • Sea Pressure 1015.4mb
  • Point Arguello, Ca
  • Point Arguello, Ca

More Historic Weather Station data

Upgrade to MSW Pro to gain access to the past 30 days of data for over 8000 Wavebouys and Weather Stations around the globe.

Join Pro

Comparision Forecast

View Surf forecast
   
ven. 04/28 11:00 9 11 mph 1015.4mb 51f
10:00 16 20 mph 1014.5mb 52f
9:00 21 25 mph 1013.6mb 53f
8:00 24 26 mph 1013mb 53f
7:00 21 23 mph 1012.6mb 54f
6:00 22 25 mph 1012.5mb 55f
5:00 21 25 mph 1012.6mb 55f
4:00 18 22 mph 1013.1mb 54f
3:00 25 29 mph 1013.5mb 53f
2:00 21 25 mph 1014.2mb 53f
1:00 18 25 mph 1014.8mb 53f
12:00 20 21 mph 1015mb 52f
11:00 21 22 mph 1015.2mb 51f
10:00 18 21 mph 1015.1mb 51f
9:00 23 25 mph 1014.7mb 51f
8:00 26 29 mph 1014.5mb 51f
7:00 24 28 mph 1013.8mb 51f
6:00 30 33 mph 1013mb 51f
5:00 30 32 mph 1012.7mb 51f
4:00 28 30 mph 1012.8mb 51f
3:00 29 32 mph 1012.8mb 51f
2:00 26 32 mph 1013.5mb 52f
1:00 28 32 mph 1013.7mb 52f
12:00 26 31 mph 1013.8mb 52f
jeu. 04/27 11:00 28 29 mph 1013.9mb 52f
10:00 26 30 mph 1013.8mb 52f
9:00 33 36 mph 1013.1mb 53f
8:00 23 26 mph 1013.1mb 53f
7:00 24 29 mph 1013.3mb 54f
6:00 20 23 mph 1013.5mb 55f
5:00 22 26 mph 1013.1mb 54f
4:00 28 32 mph 1013.3mb 53f
3:00 26 36 mph 1014.4mb 54f
2:00 26 30 mph 1014.3mb 54f
1:00 22 24 mph 1014.8mb 53f
12:00 24 28 mph 1015.3mb 52f
11:00 23 24 mph 1015.3mb 52f
10:00 28 31 mph 1014.9mb 52f
9:00 29 33 mph 1014.6mb 51f
8:00 30 32 mph 1014.3mb 51f
7:00 34 39 mph 1013.6mb 51f
6:00 41 45 mph 1013.1mb 51f
5:00 33 37 mph 1013.2mb 51f
3:00 24 29 mph 1014.1mb 52f
2:00 28 30 mph 1014.4mb 52f
1:00 30 33 mph 1014.7mb 52f
12:00 24 28 mph 1015.3mb 52f
mer. 04/26 11:00 28 31 mph 1015.4mb 53f
10:00 25 29 mph 1015.9mb 53f
9:00 28 31 mph 1015.3mb 54f
8:00 25 28 mph 1015.1mb 54f
7:00 20 23 mph 1015.5mb 54f
6:00 26 30 mph 1015.3mb 54f
5:00 22 26 mph 1015.7mb 55f
4:00 23 28 mph 1015.9mb 55f
3:00 28 33 mph 1016.2mb 55f
2:00 24 26 mph 1016.5mb 54f
1:00 21 22 mph 1017.1mb 53f
12:00 24 31 mph 1017.3mb 53f
11:00 22 24 mph 1017.3mb 53f
10:00 22 24 mph 1017.3mb 52f
9:00 31 34 mph 1017.2mb 52f
8:00 29 30 mph 1017mb 52f
7:00 21 23 mph 1016.7mb 52f
6:00 21 23 mph 1015.9mb 52f
5:00 20 22 mph 1015.9mb 52f
4:00 26 29 mph 1016.4mb 52f
3:00 23 25 mph 1016.6mb 52f
2:00 20 23 mph 1016.9mb 52f
1:00 23 26 mph 1017.6mb 52f
12:00 21 24 mph 1017.8mb 52f
mar. 04/25 11:00 20 22 mph 1018.1mb 53f
10:00 21 24 mph 1018.1mb 53f
9:00 22 24 mph 1017.5mb 54f
8:00 21 24 mph 1016.7mb 54f
7:00 16 20 mph 1016.8mb 54f
6:00 17 20 mph 1016.8mb 54f
5:00 16 18 mph 1016.6mb 54f
4:00 16 20 mph 1017mb 54f
3:00 18 21 mph 1017.8mb 54f
2:00 20 22 mph 1017.9mb 53f
1:00 20 21 mph 1018mb 53f
12:00 28 30 mph 1018.1mb 53f
11:00 21 22 mph 1018.3mb 52f
10:00 25 26 mph 1017.5mb 52f
9:00 29 32 mph 1016.7mb 52f
8:00 29 31 mph 1016.3mb 51f